sensor_id;sensor_type;location;lat;lon;timestamp;temperature;humidity
5779;DHT22;2916;49.798;10.022;2023-04-03T00:00:55;1.70;99.90
5779;DHT22;2916;49.798;10.022;2023-04-03T00:03:24;1.70;99.90
5779;DHT22;2916;49.798;10.022;2023-04-03T00:05:51;1.80;99.90
5779;DHT22;2916;49.798;10.022;2023-04-03T00:08:19;1.70;99.90
5779;DHT22;2916;49.798;10.022;2023-04-03T00:10:46;1.70;99.90
5779;DHT22;2916;49.798;10.022;2023-04-03T00:13:14;1.70;99.90
5779;DHT22;2916;49.798;10.022;2023-04-03T00:15:43;1.60;99.90
5779;DHT22;2916;49.798;10.022;2023-04-03T00:18:11;1.70;99.90
5779;DHT22;2916;49.798;10.022;2023-04-03T00:20:40;1.70;99.90
5779;DHT22;2916;49.798;10.022;2023-04-03T00:23:07;1.70;99.90
5779;DHT22;2916;49.798;10.022;2023-04-03T00:25:35;1.70;99.90
5779;DHT22;2916;49.798;10.022;2023-04-03T00:28:03;1.70;99.90
5779;DHT22;2916;49.798;10.022;2023-04-03T00:30:31;1.70;99.90
5779;DHT22;2916;49.798;10.022;2023-04-03T00:32:59;1.70;99.90
5779;DHT22;2916;49.798;10.022;2023-04-03T00:35:27;1.70;99.90
5779;DHT22;2916;49.798;10.022;2023-04-03T00:37:56;1.80;99.90
5779;DHT22;2916;49.798;10.022;2023-04-03T00:40:24;1.80;99.90
5779;DHT22;2916;49.798;10.022;2023-04-03T00:42:56;1.80;99.90
5779;DHT22;2916;49.798;10.022;2023-04-03T00:45:31;1.80;99.90
5779;DHT22;2916;49.798;10.022;2023-04-03T00:48:04;1.90;99.90
5779;DHT22;2916;49.798;10.022;2023-04-03T00:50:36;1.90;99.90
5779;DHT22;2916;49.798;10.022;2023-04-03T00:53:10;1.90;99.90
5779;DHT22;2916;49.798;10.022;2023-04-03T00:55:39;1.90;99.90
5779;DHT22;2916;49.798;10.022;2023-04-03T00:58:08;2.00;99.90
5779;DHT22;2916;49.798;10.022;2023-04-03T01:00:38;2.00;99.90
5779;DHT22;2916;49.798;10.022;2023-04-03T01:03:09;2.00;99.90
5779;DHT22;2916;49.798;10.022;2023-04-03T01:05:37;2.00;99.90
5779;DHT22;2916;49.798;10.022;2023-04-03T01:08:08;2.00;99.90
5779;DHT22;2916;49.798;10.022;2023-04-03T01:10:35;2.00;99.90
5779;DHT22;2916;49.798;10.022;2023-04-03T01:13:18;2.00;99.90
5779;DHT22;2916;49.798;10.022;2023-04-03T01:15:46;2.00;99.90
5779;DHT22;2916;49.798;10.022;2023-04-03T01:18:14;2.00;99.90
5779;DHT22;2916;49.798;10.022;2023-04-03T01:24:16;2.10;99.90
5779;DHT22;2916;49.798;10.022;2023-04-03T01:26:54;2.10;99.90
5779;DHT22;2916;49.798;10.022;2023-04-03T01:29:21;2.10;99.90
5779;DHT22;2916;49.798;10.022;2023-04-03T01:31:52;2.10;99.90
5779;DHT22;2916;49.798;10.022;2023-04-03T01:34:21;2.20;99.90
5779;DHT22;2916;49.798;10.022;2023-04-03T01:36:49;2.10;99.90
5779;DHT22;2916;49.798;10.022;2023-04-03T01:39:17;2.10;99.90
5779;DHT22;2916;49.798;10.022;2023-04-03T01:41:44;2.20;99.90
5779;DHT22;2916;49.798;10.022;2023-04-03T01:44:12;2.30;99.90
5779;DHT22;2916;49.798;10.022;2023-04-03T01:46:39;2.40;99.90
5779;DHT22;2916;49.798;10.022;2023-04-03T01:49:09;2.50;99.90
5779;DHT22;2916;49.798;10.022;2023-04-03T01:51:36;2.50;99.90
5779;DHT22;2916;49.798;10.022;2023-04-03T01:54:03;2.50;99.90
5779;DHT22;2916;49.798;10.022;2023-04-03T01:56:31;2.60;99.90
5779;DHT22;2916;49.798;10.022;2023-04-03T01:58:58;2.60;99.90
5779;DHT22;2916;49.798;10.022;2023-04-03T02:01:25;2.70;99.90
5779;DHT22;2916;49.798;10.022;2023-04-03T02:03:53;2.70;99.90
5779;DHT22;2916;49.798;10.022;2023-04-03T02:06:21;2.70;99.90
5779;DHT22;2916;49.798;10.022;2023-04-03T02:08:48;2.70;99.90
5779;DHT22;2916;49.798;10.022;2023-04-03T02:11:16;2.80;99.90
5779;DHT22;2916;49.798;10.022;2023-04-03T02:13:43;2.80;99.90
5779;DHT22;2916;49.798;10.022;2023-04-03T02:16:10;2.70;99.90
5779;DHT22;2916;49.798;10.022;2023-04-03T02:18:39;2.80;99.90
5779;DHT22;2916;49.798;10.022;2023-04-03T02:21:06;2.80;99.90
5779;DHT22;2916;49.798;10.022;2023-04-03T02:23:34;2.80;99.90
5779;DHT22;2916;49.798;10.022;2023-04-03T02:26:07;2.90;99.90
5779;DHT22;2916;49.798;10.022;2023-04-03T02:28:36;2.90;99.90
5779;DHT22;2916;49.798;10.022;2023-04-03T02:31:04;2.90;99.90
5779;DHT22;2916;49.798;10.022;2023-04-03T02:33:32;2.90;99.90
5779;DHT22;2916;49.798;10.022;2023-04-03T02:36:02;2.90;99.90
5779;DHT22;2916;49.798;10.022;2023-04-03T02:38:31;3.00;99.90
5779;DHT22;2916;49.798;10.022;2023-04-03T02:41:01;3.00;99.90
5779;DHT22;2916;49.798;10.022;2023-04-03T02:43:28;3.00;99.90
5779;DHT22;2916;49.798;10.022;2023-04-03T02:45:55;3.10;99.90
5779;DHT22;2916;49.798;10.022;2023-04-03T02:48:22;3.10;99.90
5779;DHT22;2916;49.798;10.022;2023-04-03T02:50:50;3.10;99.90
5779;DHT22;2916;49.798;10.022;2023-04-03T02:53:18;3.10;99.90
5779;DHT22;2916;49.798;10.022;2023-04-03T02:55:45;3.20;99.90
5779;DHT22;2916;49.798;10.022;2023-04-03T02:58:14;3.20;99.90
5779;DHT22;2916;49.798;10.022;2023-04-03T03:00:41;3.20;99.90
5779;DHT22;2916;49.798;10.022;2023-04-03T03:03:09;3.20;99.90
5779;DHT22;2916;49.798;10.022;2023-04-03T03:05:36;3.20;99.90
5779;DHT22;2916;49.798;10.022;2023-04-03T03:08:03;3.30;99.90
5779;DHT22;2916;49.798;10.022;2023-04-03T03:10:30;3.20;99.90
5779;DHT22;2916;49.798;10.022;2023-04-03T03:12:57;3.30;99.90
5779;DHT22;2916;49.798;10.022;2023-04-03T03:15:26;3.30;99.90
5779;DHT22;2916;49.798;10.022;2023-04-03T03:17:53;3.40;99.90
5779;DHT22;2916;49.798;10.022;2023-04-03T03:20:20;3.40;99.90
5779;DHT22;2916;49.798;10.022;2023-04-03T03:22:47;3.40;99.90
5779;DHT22;2916;49.798;10.022;2023-04-03T03:25:14;3.40;99.90
5779;DHT22;2916;49.798;10.022;2023-04-03T03:27:42;3.40;99.90
5779;DHT22;2916;49.798;10.022;2023-04-03T03:30:09;3.50;99.90
5779;DHT22;2916;49.798;10.022;2023-04-03T03:32:38;3.40;99.90
5779;DHT22;2916;49.798;10.022;2023-04-03T03:35:06;3.40;99.90
5779;DHT22;2916;49.798;10.022;2023-04-03T03:37:33;3.50;99.90
5779;DHT22;2916;49.798;10.022;2023-04-03T03:40:01;3.50;99.90
5779;DHT22;2916;49.798;10.022;2023-04-03T03:42:28;3.50;99.90
5779;DHT22;2916;49.798;10.022;2023-04-03T03:44:55;3.50;99.90
5779;DHT22;2916;49.798;10.022;2023-04-03T03:47:22;3.50;99.90
5779;DHT22;2916;49.798;10.022;2023-04-03T03:49:50;3.50;99.90
5779;DHT22;2916;49.798;10.022;2023-04-03T03:52:17;3.50;99.90
5779;DHT22;2916;49.798;10.022;2023-04-03T03:54:45;3.50;99.90
5779;DHT22;2916;49.798;10.022;2023-04-03T03:57:12;3.50;99.90
5779;DHT22;2916;49.798;10.022;2023-04-03T03:59:39;3.50;99.90
5779;DHT22;2916;49.798;10.022;2023-04-03T04:02:07;3.50;99.90
5779;DHT22;2916;49.798;10.022;2023-04-03T04:04:34;3.50;99.90
5779;DHT22;2916;49.798;10.022;2023-04-03T04:07:03;3.50;99.90
5779;DHT22;2916;49.798;10.022;2023-04-03T04:09:30;3.50;99.90
5779;DHT22;2916;49.798;10.022;2023-04-03T04:11:57;3.50;99.90
5779;DHT22;2916;49.798;10.022;2023-04-03T04:14:24;3.50;99.90
5779;DHT22;2916;49.798;10.022;2023-04-03T04:16:52;3.50;99.90
5779;DHT22;2916;49.798;10.022;2023-04-03T04:19:19;3.50;99.90
5779;DHT22;2916;49.798;10.022;2023-04-03T04:21:46;3.40;99.90
5779;DHT22;2916;49.798;10.022;2023-04-03T04:24:14;3.30;99.90
5779;DHT22;2916;49.798;10.022;2023-04-03T04:26:41;3.30;99.90
5779;DHT22;2916;49.798;10.022;2023-04-03T04:29:09;3.30;99.90
5779;DHT22;2916;49.798;10.022;2023-04-03T04:31:36;3.30;99.90
5779;DHT22;2916;49.798;10.022;2023-04-03T04:34:03;3.20;99.90
5779;DHT22;2916;49.798;10.022;2023-04-03T04:36:30;3.30;99.90
5779;DHT22;2916;49.798;10.022;2023-04-03T04:38:57;3.20;99.90
5779;DHT22;2916;49.798;10.022;2023-04-03T04:41:26;3.20;99.90
5779;DHT22;2916;49.798;10.022;2023-04-03T04:43:53;3.20;99.90
5779;DHT22;2916;49.798;10.022;2023-04-03T04:46:20;3.20;99.90
5779;DHT22;2916;49.798;10.022;2023-04-03T04:48:48;3.20;99.90
5779;DHT22;2916;49.798;10.022;2023-04-03T04:51:15;3.10;99.90
5779;DHT22;2916;49.798;10.022;2023-04-03T04:53:43;3.00;99.90
5779;DHT22;2916;49.798;10.022;2023-04-03T04:56:12;3.00;99.90
5779;DHT22;2916;49.798;10.022;2023-04-03T04:58:41;2.90;99.90
5779;DHT22;2916;49.798;10.022;2023-04-03T05:01:09;2.80;99.90
5779;DHT22;2916;49.798;10.022;2023-04-03T05:03:37;2.80;99.90
5779;DHT22;2916;49.798;10.022;2023-04-03T05:06:04;2.80;99.90
5779;DHT22;2916;49.798;10.022;2023-04-03T05:08:32;2.70;99.90
5779;DHT22;2916;49.798;10.022;2023-04-03T05:10:59;2.60;99.90
5779;DHT22;2916;49.798;10.022;2023-04-03T05:13:26;2.50;99.90
5779;DHT22;2916;49.798;10.022;2023-04-03T05:15:54;2.70;99.90
5779;DHT22;2916;49.798;10.022;2023-04-03T05:18:21;2.90;99.90
5779;DHT22;2916;49.798;10.022;2023-04-03T05:20:49;2.90;99.90
5779;DHT22;2916;49.798;10.022;2023-04-03T05:23:17;2.70;99.90
5779;DHT22;2916;49.798;10.022;2023-04-03T05:25:45;2.60;99.90
5779;DHT22;2916;49.798;10.022;2023-04-03T05:28:12;2.50;99.90
5779;DHT22;2916;49.798;10.022;2023-04-03T05:30:40;2.50;99.90
5779;DHT22;2916;49.798;10.022;2023-04-03T05:33:08;2.40;99.90
5779;DHT22;2916;49.798;10.022;2023-04-03T05:35:36;2.50;99.90
5779;DHT22;2916;49.798;10.022;2023-04-03T05:38:04;2.40;99.90
5779;DHT22;2916;49.798;10.022;2023-04-03T05:40:32;2.40;99.90
5779;DHT22;2916;49.798;10.022;2023-04-03T05:42:59;2.40;99.90
5779;DHT22;2916;49.798;10.022;2023-04-03T05:45:26;3.00;99.90
5779;DHT22;2916;49.798;10.022;2023-04-03T05:47:54;3.80;99.90
5779;DHT22;2916;49.798;10.022;2023-04-03T05:50:22;4.50;99.90
5779;DHT22;2916;49.798;10.022;2023-04-03T05:52:53;4.80;99.90
5779;DHT22;2916;49.798;10.022;2023-04-03T05:55:23;5.20;96.10
5779;DHT22;2916;49.798;10.022;2023-04-03T05:57:51;5.40;92.60
5779;DHT22;2916;49.798;10.022;2023-04-03T06:00:18;5.80;75.10
5779;DHT22;2916;49.798;10.022;2023-04-03T06:02:46;5.50;64.70
5779;DHT22;2916;49.798;10.022;2023-04-03T06:05:13;5.80;76.00
5779;DHT22;2916;49.798;10.022;2023-04-03T06:07:42;5.70;52.50
5779;DHT22;2916;49.798;10.022;2023-04-03T06:10:11;6.30;61.50
5779;DHT22;2916;49.798;10.022;2023-04-03T06:12:38;5.90;43.50
5779;DHT22;2916;49.798;10.022;2023-04-03T06:15:07;6.10;42.90
5779;DHT22;2916;49.798;10.022;2023-04-03T06:17:35;6.80;41.00
5779;DHT22;2916;49.798;10.022;2023-04-03T06:20:03;7.20;37.70
5779;DHT22;2916;49.798;10.022;2023-04-03T06:22:31;7.40;32.00
5779;DHT22;2916;49.798;10.022;2023-04-03T06:25:00;7.50;19.10
5779;DHT22;2916;49.798;10.022;2023-04-03T06:27:30;7.70;17.50
5779;DHT22;2916;49.798;10.022;2023-04-03T06:29:57;7.30;14.60
5779;DHT22;2916;49.798;10.022;2023-04-03T06:32:24;6.90;19.90
5779;DHT22;2916;49.798;10.022;2023-04-03T06:34:52;6.10;25.60
5779;DHT22;2916;49.798;10.022;2023-04-03T06:37:22;6.00;29.60
5779;DHT22;2916;49.798;10.022;2023-04-03T06:39:51;5.80;27.60
5779;DHT22;2916;49.798;10.022;2023-04-03T06:42:20;5.80;29.50
5779;DHT22;2916;49.798;10.022;2023-04-03T06:44:47;5.50;29.70
5779;DHT22;2916;49.798;10.022;2023-04-03T06:47:15;5.40;37.30
5779;DHT22;2916;49.798;10.022;2023-04-03T06:49:44;5.60;37.50
5779;DHT22;2916;49.798;10.022;2023-04-03T06:52:11;5.10;35.40
5779;DHT22;2916;49.798;10.022;2023-04-03T06:54:39;5.20;38.10
5779;DHT22;2916;49.798;10.022;2023-04-03T06:57:07;5.40;48.40
5779;DHT22;2916;49.798;10.022;2023-04-03T06:59:36;6.20;26.60
5779;DHT22;2916;49.798;10.022;2023-04-03T07:02:03;6.10;32.10
5779;DHT22;2916;49.798;10.022;2023-04-03T07:04:31;6.90;19.70
5779;DHT22;2916;49.798;10.022;2023-04-03T07:06:58;6.80;20.90
5779;DHT22;2916;49.798;10.022;2023-04-03T07:09:25;7.50;21.60
5779;DHT22;2916;49.798;10.022;2023-04-03T07:11:52;7.10;11.40
5779;DHT22;2916;49.798;10.022;2023-04-03T07:14:19;6.60;8.90
5779;DHT22;2916;49.798;10.022;2023-04-03T07:16:48;7.00;15.50
5779;DHT22;2916;49.798;10.022;2023-04-03T07:19:15;7.70;3.50
5779;DHT22;2916;49.798;10.022;2023-04-03T07:21:44;8.50;7.50
5779;DHT22;2916;49.798;10.022;2023-04-03T07:24:11;9.00;2.80
5779;DHT22;2916;49.798;10.022;2023-04-03T07:26:38;8.90;1.00
5779;DHT22;2916;49.798;10.022;2023-04-03T07:29:06;9.50;1.00
5779;DHT22;2916;49.798;10.022;2023-04-03T07:31:34;10.00;1.00
5779;DHT22;2916;49.798;10.022;2023-04-03T07:34:03;9.40;1.00
5779;DHT22;2916;49.798;10.022;2023-04-03T07:36:30;10.10;1.00
5779;DHT22;2916;49.798;10.022;2023-04-03T07:38:58;9.50;1.00
5779;DHT22;2916;49.798;10.022;2023-04-03T07:41:27;9.50;1.00
5779;DHT22;2916;49.798;10.022;2023-04-03T07:43:54;10.40;1.00
5779;DHT22;2916;49.798;10.022;2023-04-03T07:46:22;10.80;1.00
5779;DHT22;2916;49.798;10.022;2023-04-03T07:48:49;10.10;1.00
5779;DHT22;2916;49.798;10.022;2023-04-03T07:51:18;10.50;1.00
5779;DHT22;2916;49.798;10.022;2023-04-03T07:53:45;11.30;1.00
5779;DHT22;2916;49.798;10.022;2023-04-03T07:56:14;9.80;1.00
5779;DHT22;2916;49.798;10.022;2023-04-03T07:58:41;10.70;1.00
5779;DHT22;2916;49.798;10.022;2023-04-03T08:01:08;10.30;1.00
5779;DHT22;2916;49.798;10.022;2023-04-03T08:03:35;10.90;1.00
5779;DHT22;2916;49.798;10.022;2023-04-03T08:06:04;10.60;1.00
5779;DHT22;2916;49.798;10.022;2023-04-03T08:08:34;10.80;1.00
5779;DHT22;2916;49.798;10.022;2023-04-03T08:11:02;10.90;1.00
5779;DHT22;2916;49.798;10.022;2023-04-03T08:13:31;9.80;1.00
5779;DHT22;2916;49.798;10.022;2023-04-03T08:16:08;10.30;1.00
5779;DHT22;2916;49.798;10.022;2023-04-03T08:18:36;10.20;1.00
5779;DHT22;2916;49.798;10.022;2023-04-03T08:21:08;10.10;1.00
5779;DHT22;2916;49.798;10.022;2023-04-03T08:23:37;9.20;1.00
5779;DHT22;2916;49.798;10.022;2023-04-03T08:26:08;9.90;1.00
5779;DHT22;2916;49.798;10.022;2023-04-03T08:28:36;10.60;1.00
5779;DHT22;2916;49.798;10.022;2023-04-03T08:31:04;10.60;1.00
5779;DHT22;2916;49.798;10.022;2023-04-03T08:33:33;10.30;1.00
5779;DHT22;2916;49.798;10.022;2023-04-03T08:36:02;10.50;1.00
5779;DHT22;2916;49.798;10.022;2023-04-03T08:38:30;10.90;1.00
5779;DHT22;2916;49.798;10.022;2023-04-03T08:41:07;10.40;1.00
5779;DHT22;2916;49.798;10.022;2023-04-03T08:43:50;10.30;1.00
5779;DHT22;2916;49.798;10.022;2023-04-03T08:46:28;9.80;1.00
5779;DHT22;2916;49.798;10.022;2023-04-03T08:49:11;9.20;1.00
5779;DHT22;2916;49.798;10.022;2023-04-03T08:51:49;8.70;1.00
5779;DHT22;2916;49.798;10.022;2023-04-03T08:54:25;9.40;1.00
5779;DHT22;2916;49.798;10.022;2023-04-03T08:57:00;8.60;1.00
5779;DHT22;2916;49.798;10.022;2023-04-03T08:59:33;9.60;1.00
5779;DHT22;2916;49.798;10.022;2023-04-03T09:02:12;9.20;1.00
5779;DHT22;2916;49.798;10.022;2023-04-03T09:04:49;10.20;1.00
5779;DHT22;2916;49.798;10.022;2023-04-03T09:07:21;9.90;1.00
5779;DHT22;2916;49.798;10.022;2023-04-03T09:09:59;10.00;1.00
5779;DHT22;2916;49.798;10.022;2023-04-03T09:12:34;10.60;1.00
5779;DHT22;2916;49.798;10.022;2023-04-03T09:15:13;10.10;1.00
5779;DHT22;2916;49.798;10.022;2023-04-03T09:17:53;10.70;1.00
5779;DHT22;2916;49.798;10.022;2023-04-03T09:20:37;10.70;1.00
5779;DHT22;2916;49.798;10.022;2023-04-03T09:23:17;10.80;1.00
5779;DHT22;2916;49.798;10.022;2023-04-03T09:25:50;10.80;1.00
5779;DHT22;2916;49.798;10.022;2023-04-03T09:28:21;11.30;1.00
5779;DHT22;2916;49.798;10.022;2023-04-03T09:30:48;11.10;1.00
5779;DHT22;2916;49.798;10.022;2023-04-03T09:33:16;10.90;1.00
5779;DHT22;2916;49.798;10.022;2023-04-03T09:35:44;11.10;1.00
5779;DHT22;2916;49.798;10.022;2023-04-03T09:38:18;9.90;1.00
5779;DHT22;2916;49.798;10.022;2023-04-03T09:40:48;10.00;1.00
5779;DHT22;2916;49.798;10.022;2023-04-03T09:43:28;10.70;1.00
5779;DHT22;2916;49.798;10.022;2023-04-03T09:46:16;10.00;1.00
5779;DHT22;2916;49.798;10.022;2023-04-03T09:48:50;10.20;1.00
5779;DHT22;2916;49.798;10.022;2023-04-03T09:51:18;8.90;1.00
5779;DHT22;2916;49.798;10.022;2023-04-03T09:53:46;8.70;1.00
5779;DHT22;2916;49.798;10.022;2023-04-03T09:56:24;9.60;1.00
5779;DHT22;2916;49.798;10.022;2023-04-03T09:59:12;9.60;1.00
5779;DHT22;2916;49.798;10.022;2023-04-03T10:01:43;9.10;1.00
5779;DHT22;2916;49.798;10.022;2023-04-03T10:04:37;9.70;1.00
5779;DHT22;2916;49.798;10.022;2023-04-03T10:07:28;10.20;1.00
5779;DHT22;2916;49.798;10.022;2023-04-03T10:09:58;9.90;1.00
5779;DHT22;2916;49.798;10.022;2023-04-03T10:12:27;9.70;1.00
5779;DHT22;2916;49.798;10.022;2023-04-03T10:14:57;10.20;1.00
5779;DHT22;2916;49.798;10.022;2023-04-03T10:17:38;9.50;1.00
5779;DHT22;2916;49.798;10.022;2023-04-03T10:20:27;9.50;1.00
5779;DHT22;2916;49.798;10.022;2023-04-03T10:23:10;10.20;1.00
5779;DHT22;2916;49.798;10.022;2023-04-03T10:25:48;10.70;1.00
5779;DHT22;2916;49.798;10.022;2023-04-03T10:28:25;9.40;1.00
5779;DHT22;2916;49.798;10.022;2023-04-03T10:31:05;9.80;1.00
5779;DHT22;2916;49.798;10.022;2023-04-03T10:33:51;10.00;1.00
5779;DHT22;2916;49.798;10.022;2023-04-03T10:36:46;8.60;1.00
5779;DHT22;2916;49.798;10.022;2023-04-03T10:39:26;8.80;1.00
5779;DHT22;2916;49.798;10.022;2023-04-03T10:42:04;8.70;1.00
5779;DHT22;2916;49.798;10.022;2023-04-03T10:44:52;9.10;1.00
5779;DHT22;2916;49.798;10.022;2023-04-03T10:47:32;8.30;1.00
5779;DHT22;2916;49.798;10.022;2023-04-03T10:50:23;8.20;1.00
5779;DHT22;2916;49.798;10.022;2023-04-03T10:53:02;8.20;1.00
5779;DHT22;2916;49.798;10.022;2023-04-03T10:55:38;8.80;1.00
5779;DHT22;2916;49.798;10.022;2023-04-03T10:58:18;8.70;1.00
5779;DHT22;2916;49.798;10.022;2023-04-03T11:00:52;9.00;1.00
5779;DHT22;2916;49.798;10.022;2023-04-03T11:03:30;9.10;1.00
5779;DHT22;2916;49.798;10.022;2023-04-03T11:06:04;8.60;1.00
5779;DHT22;2916;49.798;10.022;2023-04-03T11:08:39;7.80;1.00
5779;DHT22;2916;49.798;10.022;2023-04-03T11:11:14;7.70;1.00
5779;DHT22;2916;49.798;10.022;2023-04-03T11:13:46;8.10;1.00
5779;DHT22;2916;49.798;10.022;2023-04-03T11:16:23;7.90;1.00
5779;DHT22;2916;49.798;10.022;2023-04-03T11:18:57;8.90;1.00
5779;DHT22;2916;49.798;10.022;2023-04-03T11:21:33;8.70;1.00
5779;DHT22;2916;49.798;10.022;2023-04-03T11:24:08;9.80;1.00
5779;DHT22;2916;49.798;10.022;2023-04-03T11:26:45;10.00;1.00
5779;DHT22;2916;49.798;10.022;2023-04-03T11:29:17;9.70;1.00
5779;DHT22;2916;49.798;10.022;2023-04-03T11:32:04;9.30;1.00
5779;DHT22;2916;49.798;10.022;2023-04-03T11:34:42;8.80;1.00
5779;DHT22;2916;49.798;10.022;2023-04-03T11:37:17;9.00;1.00
5779;DHT22;2916;49.798;10.022;2023-04-03T11:39:54;9.30;1.00
5779;DHT22;2916;49.798;10.022;2023-04-03T11:42:31;9.50;1.00
5779;DHT22;2916;49.798;10.022;2023-04-03T11:48:06;9.90;1.00
5779;DHT22;2916;49.798;10.022;2023-04-03T11:50:55;9.90;1.00
5779;DHT22;2916;49.798;10.022;2023-04-03T11:53:36;9.50;1.00
5779;DHT22;2916;49.798;10.022;2023-04-03T11:56:31;9.60;1.00
5779;DHT22;2916;49.798;10.022;2023-04-03T11:59:22;9.40;1.00
5779;DHT22;2916;49.798;10.022;2023-04-03T12:01:52;9.40;1.00
5779;DHT22;2916;49.798;10.022;2023-04-03T12:04:21;9.40;1.00
5779;DHT22;2916;49.798;10.022;2023-04-03T12:07:11;9.70;1.00
5779;DHT22;2916;49.798;10.022;2023-04-03T12:10:15;10.10;1.00
5779;DHT22;2916;49.798;10.022;2023-04-03T12:12:56;10.10;1.00
5779;DHT22;2916;49.798;10.022;2023-04-03T12:15:47;10.00;1.00
5779;DHT22;2916;49.798;10.022;2023-04-03T12:18:53;10.60;1.00
5779;DHT22;2916;49.798;10.022;2023-04-03T12:21:34;10.20;1.00
5779;DHT22;2916;49.798;10.022;2023-04-03T12:24:34;9.90;1.00
5779;DHT22;2916;49.798;10.022;2023-04-03T12:27:24;9.90;1.00
5779;DHT22;2916;49.798;10.022;2023-04-03T12:30:04;9.70;1.00
5779;DHT22;2916;49.798;10.022;2023-04-03T12:33:18;10.10;1.00
5779;DHT22;2916;49.798;10.022;2023-04-03T12:35:57;9.80;1.00
5779;DHT22;2916;49.798;10.022;2023-04-03T12:39:01;9.90;1.00
5779;DHT22;2916;49.798;10.022;2023-04-03T12:41:53;10.10;1.00
5779;DHT22;2916;49.798;10.022;2023-04-03T12:44:45;9.50;1.00
5779;DHT22;2916;49.798;10.022;2023-04-03T12:47:24;9.10;1.00
5779;DHT22;2916;49.798;10.022;2023-04-03T12:49:55;9.00;1.00
5779;DHT22;2916;49.798;10.022;2023-04-03T12:52:37;9.00;1.00
5779;DHT22;2916;49.798;10.022;2023-04-03T12:55:14;9.00;1.00
5779;DHT22;2916;49.798;10.022;2023-04-03T12:57:44;8.70;1.00
5779;DHT22;2916;49.798;10.022;2023-04-03T13:00:32;8.60;1.00
5779;DHT22;2916;49.798;10.022;2023-04-03T13:03:02;8.40;1.00
5779;DHT22;2916;49.798;10.022;2023-04-03T13:05:33;8.30;1.00
5779;DHT22;2916;49.798;10.022;2023-04-03T13:08:04;8.60;1.00
5779;DHT22;2916;49.798;10.022;2023-04-03T13:10:44;9.10;1.00
5779;DHT22;2916;49.798;10.022;2023-04-03T13:13:21;9.20;1.00
5779;DHT22;2916;49.798;10.022;2023-04-03T13:15:49;9.50;1.00
5779;DHT22;2916;49.798;10.022;2023-04-03T13:18:27;9.50;1.00
5779;DHT22;2916;49.798;10.022;2023-04-03T13:21:01;9.00;1.00
5779;DHT22;2916;49.798;10.022;2023-04-03T13:23:32;8.90;1.00
5779;DHT22;2916;49.798;10.022;2023-04-03T13:26:03;8.40;1.00
5779;DHT22;2916;49.798;10.022;2023-04-03T13:28:34;8.60;1.00
5779;DHT22;2916;49.798;10.022;2023-04-03T13:31:07;8.30;1.00
5779;DHT22;2916;49.798;10.022;2023-04-03T13:33:57;8.40;1.00
5779;DHT22;2916;49.798;10.022;2023-04-03T13:36:34;8.50;1.00
5779;DHT22;2916;49.798;10.022;2023-04-03T13:39:06;9.00;1.00
5779;DHT22;2916;49.798;10.022;2023-04-03T13:41:49;8.40;1.00
5779;DHT22;2916;49.798;10.022;2023-04-03T13:44:28;8.40;1.00
5779;DHT22;2916;49.798;10.022;2023-04-03T13:46:58;8.10;1.00
5779;DHT22;2916;49.798;10.022;2023-04-03T13:49:31;8.00;1.00
5779;DHT22;2916;49.798;10.022;2023-04-03T13:52:02;8.10;1.00
5779;DHT22;2916;49.798;10.022;2023-04-03T13:54:52;8.10;1.00
5779;DHT22;2916;49.798;10.022;2023-04-03T13:57:23;8.30;1.00
5779;DHT22;2916;49.798;10.022;2023-04-03T13:59:54;8.10;1.00
5779;DHT22;2916;49.798;10.022;2023-04-03T14:02:29;8.20;1.00
5779;DHT22;2916;49.798;10.022;2023-04-03T14:05:00;8.10;1.00
5779;DHT22;2916;49.798;10.022;2023-04-03T14:07:29;8.20;1.00
5779;DHT22;2916;49.798;10.022;2023-04-03T14:09:58;8.20;1.00
5779;DHT22;2916;49.798;10.022;2023-04-03T14:12:27;8.10;1.00
5779;DHT22;2916;49.798;10.022;2023-04-03T14:15:01;8.30;1.00
5779;DHT22;2916;49.798;10.022;2023-04-03T14:17:30;8.60;1.00
5779;DHT22;2916;49.798;10.022;2023-04-03T14:19:58;8.70;1.00
5779;DHT22;2916;49.798;10.022;2023-04-03T14:22:28;8.20;1.00
5779;DHT22;2916;49.798;10.022;2023-04-03T14:24:57;8.10;1.00
5779;DHT22;2916;49.798;10.022;2023-04-03T14:27:27;8.10;1.00
5779;DHT22;2916;49.798;10.022;2023-04-03T14:29:57;8.10;1.00
5779;DHT22;2916;49.798;10.022;2023-04-03T14:32:28;8.10;1.00
5779;DHT22;2916;49.798;10.022;2023-04-03T14:34:56;8.40;1.00
5779;DHT22;2916;49.798;10.022;2023-04-03T14:37:25;8.70;1.00
5779;DHT22;2916;49.798;10.022;2023-04-03T14:39:55;8.20;1.00
5779;DHT22;2916;49.798;10.022;2023-04-03T14:42:26;8.50;1.00
5779;DHT22;2916;49.798;10.022;2023-04-03T14:44:55;8.50;1.00
5779;DHT22;2916;49.798;10.022;2023-04-03T14:47:26;8.50;1.00
5779;DHT22;2916;49.798;10.022;2023-04-03T14:49:55;8.30;1.00
5779;DHT22;2916;49.798;10.022;2023-04-03T14:52:25;8.30;1.00
5779;DHT22;2916;49.798;10.022;2023-04-03T14:54:54;8.70;1.00
5779;DHT22;2916;49.798;10.022;2023-04-03T14:57:25;8.90;1.00
5779;DHT22;2916;49.798;10.022;2023-04-03T14:59:53;8.80;1.00
5779;DHT22;2916;49.798;10.022;2023-04-03T15:02:30;9.00;1.00
5779;DHT22;2916;49.798;10.022;2023-04-03T15:05:00;8.60;1.00
5779;DHT22;2916;49.798;10.022;2023-04-03T15:07:31;8.50;1.00
5779;DHT22;2916;49.798;10.022;2023-04-03T15:10:02;8.50;1.00
5779;DHT22;2916;49.798;10.022;2023-04-03T15:12:33;8.90;1.00
5779;DHT22;2916;49.798;10.022;2023-04-03T15:15:00;9.10;1.00
5779;DHT22;2916;49.798;10.022;2023-04-03T15:17:29;8.80;1.00
5779;DHT22;2916;49.798;10.022;2023-04-03T15:19:56;8.60;1.00
5779;DHT22;2916;49.798;10.022;2023-04-03T15:22:25;8.70;1.00
5779;DHT22;2916;49.798;10.022;2023-04-03T15:24:53;8.70;1.00
5779;DHT22;2916;49.798;10.022;2023-04-03T15:27:20;8.70;1.00
5779;DHT22;2916;49.798;10.022;2023-04-03T15:29:47;8.70;1.00
5779;DHT22;2916;49.798;10.022;2023-04-03T15:32:15;8.80;1.00
5779;DHT22;2916;49.798;10.022;2023-04-03T15:34:43;8.70;1.00
5779;DHT22;2916;49.798;10.022;2023-04-03T15:37:10;8.90;1.00
5779;DHT22;2916;49.798;10.022;2023-04-03T15:39:38;8.60;1.00
5779;DHT22;2916;49.798;10.022;2023-04-03T15:42:05;8.60;1.00
5779;DHT22;2916;49.798;10.022;2023-04-03T15:44:33;8.80;1.00
5779;DHT22;2916;49.798;10.022;2023-04-03T15:47:01;8.70;1.00
5779;DHT22;2916;49.798;10.022;2023-04-03T15:49:29;8.60;1.00
5779;DHT22;2916;49.798;10.022;2023-04-03T15:51:58;8.40;1.00
5779;DHT22;2916;49.798;10.022;2023-04-03T15:54:25;8.50;1.00
5779;DHT22;2916;49.798;10.022;2023-04-03T15:56:55;8.60;1.00
5779;DHT22;2916;49.798;10.022;2023-04-03T15:59:22;8.60;1.00
5779;DHT22;2916;49.798;10.022;2023-04-03T16:01:50;8.40;1.00
5779;DHT22;2916;49.798;10.022;2023-04-03T16:04:19;8.10;1.00
5779;DHT22;2916;49.798;10.022;2023-04-03T16:06:47;8.20;1.00
5779;DHT22;2916;49.798;10.022;2023-04-03T16:09:16;8.10;1.00
5779;DHT22;2916;49.798;10.022;2023-04-03T16:11:47;8.20;1.00
5779;DHT22;2916;49.798;10.022;2023-04-03T16:14:14;8.20;1.00
5779;DHT22;2916;49.798;10.022;2023-04-03T16:16:41;8.10;1.00
5779;DHT22;2916;49.798;10.022;2023-04-03T16:19:09;7.90;1.00
5779;DHT22;2916;49.798;10.022;2023-04-03T16:21:37;7.60;1.00
5779;DHT22;2916;49.798;10.022;2023-04-03T16:24:05;7.40;1.00
5779;DHT22;2916;49.798;10.022;2023-04-03T16:26:34;7.20;1.00
5779;DHT22;2916;49.798;10.022;2023-04-03T16:29:01;7.00;1.00
5779;DHT22;2916;49.798;10.022;2023-04-03T16:31:28;7.00;1.00
5779;DHT22;2916;49.798;10.022;2023-04-03T16:33:56;7.00;1.00
5779;DHT22;2916;49.798;10.022;2023-04-03T16:36:23;7.10;1.00
5779;DHT22;2916;49.798;10.022;2023-04-03T16:38:51;7.20;1.00
5779;DHT22;2916;49.798;10.022;2023-04-03T16:41:19;7.30;1.00
5779;DHT22;2916;49.798;10.022;2023-04-03T16:43:47;7.20;1.00